sensor_id;sensor_type;location;lat;lon;timestamp;P1;durP1;ratioP1;P2;durP2;ratioP2
49910;SDS011;35803;53.096;5.844;2023-05-20T00:01:35;7.45;;;4.30;;
49910;SDS011;35803;53.096;5.844;2023-05-20T00:04:20;8.40;;;3.83;;
49910;SDS011;35803;53.096;5.844;2023-05-20T00:07:04;9.95;;;4.22;;
49910;SDS011;35803;53.096;5.844;2023-05-20T00:09:51;10.48;;;4.63;;
49910;SDS011;35803;53.096;5.844;2023-05-20T00:12:35;9.60;;;3.70;;
49910;SDS011;35803;53.096;5.844;2023-05-20T00:15:20;10.82;;;3.92;;
49910;SDS011;35803;53.096;5.844;2023-05-20T00:18:04;9.15;;;3.55;;
49910;SDS011;35803;53.096;5.844;2023-05-20T00:20:49;9.15;;;4.15;;
49910;SDS011;35803;53.096;5.844;2023-05-20T00:23:33;9.15;;;4.00;;
49910;SDS011;35803;53.096;5.844;2023-05-20T00:26:17;11.02;;;3.30;;
49910;SDS011;35803;53.096;5.844;2023-05-20T00:29:02;10.43;;;4.20;;
49910;SDS011;35803;53.096;5.844;2023-05-20T00:31:46;7.38;;;4.25;;
49910;SDS011;35803;53.096;5.844;2023-05-20T00:34:30;7.68;;;3.75;;
49910;SDS011;35803;53.096;5.844;2023-05-20T00:37:14;8.65;;;4.10;;
49910;SDS011;35803;53.096;5.844;2023-05-20T00:39:58;8.45;;;3.88;;
49910;SDS011;35803;53.096;5.844;2023-05-20T00:42:42;11.63;;;4.20;;
49910;SDS011;35803;53.096;5.844;2023-05-20T00:45:26;10.68;;;3.85;;
49910;SDS011;35803;53.096;5.844;2023-05-20T00:48:11;7.68;;;4.00;;
49910;SDS011;35803;53.096;5.844;2023-05-20T00:50:55;11.40;;;4.55;;
49910;SDS011;35803;53.096;5.844;2023-05-20T00:53:51;10.32;;;4.20;;
49910;SDS011;35803;53.096;5.844;2023-05-20T00:56:34;6.65;;;3.67;;
49910;SDS011;35803;53.096;5.844;2023-05-20T00:59:19;13.27;;;4.43;;
49910;SDS011;35803;53.096;5.844;2023-05-20T01:02:03;8.45;;;4.20;;
49910;SDS011;35803;53.096;5.844;2023-05-20T01:04:48;6.78;;;3.28;;
49910;SDS011;35803;53.096;5.844;2023-05-20T01:07:34;8.88;;;4.15;;
49910;SDS011;35803;53.096;5.844;2023-05-20T01:10:19;11.43;;;4.68;;
49910;SDS011;35803;53.096;5.844;2023-05-20T01:13:14;9.57;;;3.80;;
49910;SDS011;35803;53.096;5.844;2023-05-20T01:16:00;10.63;;;4.13;;
49910;SDS011;35803;53.096;5.844;2023-05-20T01:18:46;7.78;;;3.72;;
49910;SDS011;35803;53.096;5.844;2023-05-20T01:21:31;9.90;;;4.22;;
49910;SDS011;35803;53.096;5.844;2023-05-20T01:24:16;10.45;;;4.40;;
49910;SDS011;35803;53.096;5.844;2023-05-20T01:27:00;7.40;;;3.92;;
49910;SDS011;35803;53.096;5.844;2023-05-20T01:29:48;7.05;;;4.05;;
49910;SDS011;35803;53.096;5.844;2023-05-20T01:32:37;10.50;;;4.43;;
49910;SDS011;35803;53.096;5.844;2023-05-20T01:35:23;9.80;;;4.10;;
49910;SDS011;35803;53.096;5.844;2023-05-20T01:38:07;8.73;;;4.60;;
49910;SDS011;35803;53.096;5.844;2023-05-20T01:40:54;9.43;;;4.25;;
49910;SDS011;35803;53.096;5.844;2023-05-20T01:43:39;10.63;;;4.50;;
49910;SDS011;35803;53.096;5.844;2023-05-20T01:46:23;10.20;;;4.47;;
49910;SDS011;35803;53.096;5.844;2023-05-20T01:49:07;9.68;;;4.93;;
49910;SDS011;35803;53.096;5.844;2023-05-20T01:51:51;9.23;;;4.97;;
49910;SDS011;35803;53.096;5.844;2023-05-20T01:54:35;8.85;;;5.00;;
49910;SDS011;35803;53.096;5.844;2023-05-20T01:57:20;13.82;;;5.40;;
49910;SDS011;35803;53.096;5.844;2023-05-20T02:00:04;9.25;;;4.78;;
49910;SDS011;35803;53.096;5.844;2023-05-20T02:02:49;9.52;;;4.60;;
49910;SDS011;35803;53.096;5.844;2023-05-20T02:05:33;8.27;;;4.30;;
49910;SDS011;35803;53.096;5.844;2023-05-20T02:08:17;7.97;;;5.20;;
49910;SDS011;35803;53.096;5.844;2023-05-20T02:11:01;11.13;;;4.80;;
49910;SDS011;35803;53.096;5.844;2023-05-20T02:13:45;8.55;;;4.60;;
49910;SDS011;35803;53.096;5.844;2023-05-20T02:16:29;12.10;;;4.53;;
49910;SDS011;35803;53.096;5.844;2023-05-20T02:19:14;11.80;;;4.95;;
49910;SDS011;35803;53.096;5.844;2023-05-20T02:22:06;8.60;;;4.45;;
49910;SDS011;35803;53.096;5.844;2023-05-20T02:24:50;9.85;;;4.70;;
49910;SDS011;35803;53.096;5.844;2023-05-20T02:27:34;8.88;;;5.18;;
49910;SDS011;35803;53.096;5.844;2023-05-20T02:30:18;7.88;;;4.75;;
49910;SDS011;35803;53.096;5.844;2023-05-20T02:33:02;8.60;;;4.25;;
49910;SDS011;35803;53.096;5.844;2023-05-20T02:35:49;10.88;;;4.70;;
49910;SDS011;35803;53.096;5.844;2023-05-20T02:38:33;9.02;;;4.07;;
49910;SDS011;35803;53.096;5.844;2023-05-20T02:41:18;7.13;;;4.60;;
49910;SDS011;35803;53.096;5.844;2023-05-20T02:44:02;9.27;;;4.63;;
49910;SDS011;35803;53.096;5.844;2023-05-20T02:46:46;9.32;;;4.20;;
49910;SDS011;35803;53.096;5.844;2023-05-20T02:49:30;9.85;;;5.22;;
49910;SDS011;35803;53.096;5.844;2023-05-20T02:52:14;8.90;;;4.78;;
49910;SDS011;35803;53.096;5.844;2023-05-20T02:55:01;10.65;;;4.28;;
49910;SDS011;35803;53.096;5.844;2023-05-20T02:57:45;8.13;;;4.25;;
49910;SDS011;35803;53.096;5.844;2023-05-20T03:00:29;9.40;;;4.75;;
49910;SDS011;35803;53.096;5.844;2023-05-20T03:03:14;8.98;;;4.80;;
49910;SDS011;35803;53.096;5.844;2023-05-20T03:06:00;7.55;;;4.25;;
49910;SDS011;35803;53.096;5.844;2023-05-20T03:08:44;9.63;;;4.53;;
49910;SDS011;35803;53.096;5.844;2023-05-20T03:11:28;8.43;;;4.13;;
49910;SDS011;35803;53.096;5.844;2023-05-20T03:14:12;6.22;;;4.22;;
49910;SDS011;35803;53.096;5.844;2023-05-20T03:16:59;6.22;;;4.00;;
49910;SDS011;35803;53.096;5.844;2023-05-20T03:19:43;8.57;;;4.13;;
49910;SDS011;35803;53.096;5.844;2023-05-20T03:22:27;7.13;;;4.45;;
49910;SDS011;35803;53.096;5.844;2023-05-20T03:25:13;6.93;;;4.60;;
49910;SDS011;35803;53.096;5.844;2023-05-20T03:27:57;8.80;;;4.20;;
49910;SDS011;35803;53.096;5.844;2023-05-20T03:30:42;13.27;;;5.18;;
49910;SDS011;35803;53.096;5.844;2023-05-20T03:33:26;8.85;;;4.50;;
49910;SDS011;35803;53.096;5.844;2023-05-20T03:36:10;8.63;;;4.03;;
49910;SDS011;35803;53.096;5.844;2023-05-20T03:38:54;8.07;;;4.05;;
49910;SDS011;35803;53.096;5.844;2023-05-20T03:41:38;6.65;;;4.07;;
49910;SDS011;35803;53.096;5.844;2023-05-20T03:44:22;4.90;;;3.63;;
49910;SDS011;35803;53.096;5.844;2023-05-20T03:47:06;11.57;;;4.20;;
49910;SDS011;35803;53.096;5.844;2023-05-20T03:49:50;8.52;;;3.88;;
49910;SDS011;35803;53.096;5.844;2023-05-20T03:52:35;6.25;;;4.07;;
49910;SDS011;35803;53.096;5.844;2023-05-20T03:55:19;7.88;;;3.92;;
49910;SDS011;35803;53.096;5.844;2023-05-20T03:58:04;7.38;;;3.95;;
49910;SDS011;35803;53.096;5.844;2023-05-20T04:00:48;6.85;;;3.53;;
49910;SDS011;35803;53.096;5.844;2023-05-20T04:03:32;6.97;;;3.40;;
49910;SDS011;35803;53.096;5.844;2023-05-20T04:06:16;5.75;;;3.50;;
49910;SDS011;35803;53.096;5.844;2023-05-20T04:09:00;5.38;;;3.30;;
49910;SDS011;35803;53.096;5.844;2023-05-20T04:11:45;5.22;;;3.45;;
49910;SDS011;35803;53.096;5.844;2023-05-20T04:14:29;7.28;;;3.38;;
49910;SDS011;35803;53.096;5.844;2023-05-20T04:17:14;7.05;;;3.10;;
49910;SDS011;35803;53.096;5.844;2023-05-20T04:19:58;4.47;;;2.92;;
49910;SDS011;35803;53.096;5.844;2023-05-20T04:22:43;6.38;;;2.92;;
49910;SDS011;35803;53.096;5.844;2023-05-20T04:25:28;7.13;;;3.22;;
49910;SDS011;35803;53.096;5.844;2023-05-20T04:28:12;5.05;;;3.05;;
49910;SDS011;35803;53.096;5.844;2023-05-20T04:30:59;3.45;;;2.50;;
49910;SDS011;35803;53.096;5.844;2023-05-20T04:33:45;4.90;;;2.67;;
49910;SDS011;35803;53.096;5.844;2023-05-20T04:36:29;5.28;;;2.80;;
49910;SDS011;35803;53.096;5.844;2023-05-20T04:39:13;3.50;;;2.47;;
49910;SDS011;35803;53.096;5.844;2023-05-20T04:41:58;5.28;;;2.60;;
49910;SDS011;35803;53.096;5.844;2023-05-20T04:44:42;4.10;;;2.35;;
49910;SDS011;35803;53.096;5.844;2023-05-20T04:47:38;2.20;;;2.00;;
49910;SDS011;35803;53.096;5.844;2023-05-20T04:50:22;5.00;;;2.20;;
49910;SDS011;35803;53.096;5.844;2023-05-20T04:53:06;4.07;;;2.20;;
49910;SDS011;35803;53.096;5.844;2023-05-20T04:55:57;4.28;;;2.17;;
49910;SDS011;35803;53.096;5.844;2023-05-20T04:58:41;3.20;;;2.22;;
49910;SDS011;35803;53.096;5.844;2023-05-20T05:01:28;5.97;;;2.40;;
49910;SDS011;35803;53.096;5.844;2023-05-20T05:04:12;5.60;;;2.70;;
49910;SDS011;35803;53.096;5.844;2023-05-20T05:06:56;3.95;;;2.17;;
49910;SDS011;35803;53.096;5.844;2023-05-20T05:09:40;2.85;;;2.10;;
49910;SDS011;35803;53.096;5.844;2023-05-20T05:12:24;2.20;;;1.90;;
49910;SDS011;35803;53.096;5.844;2023-05-20T05:15:08;3.42;;;2.15;;
49910;SDS011;35803;53.096;5.844;2023-05-20T05:17:54;4.32;;;2.13;;
49910;SDS011;35803;53.096;5.844;2023-05-20T05:20:38;2.85;;;2.25;;
49910;SDS011;35803;53.096;5.844;2023-05-20T05:23:22;4.13;;;2.00;;
49910;SDS011;35803;53.096;5.844;2023-05-20T05:26:06;3.42;;;1.90;;
49910;SDS011;35803;53.096;5.844;2023-05-20T05:28:52;3.00;;;2.03;;
49910;SDS011;35803;53.096;5.844;2023-05-20T05:31:37;2.30;;;1.73;;
49910;SDS011;35803;53.096;5.844;2023-05-20T05:34:21;3.00;;;1.98;;
49910;SDS011;35803;53.096;5.844;2023-05-20T05:37:05;2.50;;;1.60;;
49910;SDS011;35803;53.096;5.844;2023-05-20T05:39:49;2.90;;;1.70;;
49910;SDS011;35803;53.096;5.844;2023-05-20T05:42:33;2.95;;;1.92;;
49910;SDS011;35803;53.096;5.844;2023-05-20T05:45:17;2.17;;;1.90;;
49910;SDS011;35803;53.096;5.844;2023-05-20T05:48:01;3.63;;;2.00;;
49910;SDS011;35803;53.096;5.844;2023-05-20T05:50:45;2.78;;;1.90;;
49910;SDS011;35803;53.096;5.844;2023-05-20T05:53:30;3.13;;;1.83;;
49910;SDS011;35803;53.096;5.844;2023-05-20T05:56:19;2.10;;;1.60;;
49910;SDS011;35803;53.096;5.844;2023-05-20T05:59:04;3.92;;;2.05;;
49910;SDS011;35803;53.096;5.844;2023-05-20T06:01:49;2.85;;;1.80;;
49910;SDS011;35803;53.096;5.844;2023-05-20T06:04:32;2.60;;;1.90;;
49910;SDS011;35803;53.096;5.844;2023-05-20T06:07:16;2.55;;;1.92;;
49910;SDS011;35803;53.096;5.844;2023-05-20T06:10:01;4.45;;;1.65;;
49910;SDS011;35803;53.096;5.844;2023-05-20T06:12:45;3.35;;;1.80;;
49910;SDS011;35803;53.096;5.844;2023-05-20T06:15:29;2.90;;;1.75;;
49910;SDS011;35803;53.096;5.844;2023-05-20T06:18:13;2.38;;;1.38;;
49910;SDS011;35803;53.096;5.844;2023-05-20T06:20:57;1.67;;;1.55;;
49910;SDS011;35803;53.096;5.844;2023-05-20T06:23:42;2.13;;;1.63;;
49910;SDS011;35803;53.096;5.844;2023-05-20T06:26:26;2.92;;;1.58;;
49910;SDS011;35803;53.096;5.844;2023-05-20T06:29:10;3.35;;;1.73;;
49910;SDS011;35803;53.096;5.844;2023-05-20T06:31:55;2.45;;;1.58;;
49910;SDS011;35803;53.096;5.844;2023-05-20T06:34:41;2.78;;;1.60;;
49910;SDS011;35803;53.096;5.844;2023-05-20T06:37:26;2.15;;;1.50;;
49910;SDS011;35803;53.096;5.844;2023-05-20T06:40:11;1.92;;;1.40;;
49910;SDS011;35803;53.096;5.844;2023-05-20T06:42:55;3.78;;;1.58;;
49910;SDS011;35803;53.096;5.844;2023-05-20T06:45:41;3.38;;;1.50;;
49910;SDS011;35803;53.096;5.844;2023-05-20T06:48:26;2.90;;;1.40;;
49910;SDS011;35803;53.096;5.844;2023-05-20T06:51:10;2.20;;;1.40;;
49910;SDS011;35803;53.096;5.844;2023-05-20T06:53:58;2.33;;;1.67;;
49910;SDS011;35803;53.096;5.844;2023-05-20T06:56:45;1.42;;;1.33;;
49910;SDS011;35803;53.096;5.844;2023-05-20T06:59:29;1.30;;;1.20;;
49910;SDS011;35803;53.096;5.844;2023-05-20T07:02:13;1.83;;;1.40;;
49910;SDS011;35803;53.096;5.844;2023-05-20T07:04:57;3.95;;;1.55;;
49910;SDS011;35803;53.096;5.844;2023-05-20T07:07:42;2.80;;;1.40;;
49910;SDS011;35803;53.096;5.844;2023-05-20T07:10:26;1.73;;;1.60;;
49910;SDS011;35803;53.096;5.844;2023-05-20T07:13:10;2.95;;;1.20;;
49910;SDS011;35803;53.096;5.844;2023-05-20T07:15:54;2.28;;;1.25;;
49910;SDS011;35803;53.096;5.844;2023-05-20T07:18:40;3.03;;;1.30;;
49910;SDS011;35803;53.096;5.844;2023-05-20T07:21:27;1.98;;;1.10;;
49910;SDS011;35803;53.096;5.844;2023-05-20T07:24:11;2.35;;;1.40;;
49910;SDS011;35803;53.096;5.844;2023-05-20T07:26:55;1.60;;;1.10;;
49910;SDS011;35803;53.096;5.844;2023-05-20T07:29:40;1.08;;;0.93;;
49910;SDS011;35803;53.096;5.844;2023-05-20T07:32:24;1.95;;;1.08;;
49910;SDS011;35803;53.096;5.844;2023-05-20T07:35:08;2.95;;;0.98;;
49910;SDS011;35803;53.096;5.844;2023-05-20T07:37:52;0.90;;;0.80;;
49910;SDS011;35803;53.096;5.844;2023-05-20T07:40:43;1.52;;;1.17;;
49910;SDS011;35803;53.096;5.844;2023-05-20T07:43:28;2.10;;;1.00;;
49910;SDS011;35803;53.096;5.844;2023-05-20T07:46:12;0.90;;;0.85;;
49910;SDS011;35803;53.096;5.844;2023-05-20T07:49:06;1.52;;;1.10;;
49910;SDS011;35803;53.096;5.844;2023-05-20T07:51:50;1.52;;;1.25;;
49910;SDS011;35803;53.096;5.844;2023-05-20T07:54:35;1.45;;;0.98;;
49910;SDS011;35803;53.096;5.844;2023-05-20T07:57:19;1.30;;;1.15;;
49910;SDS011;35803;53.096;5.844;2023-05-20T08:00:03;2.40;;;1.30;;
49910;SDS011;35803;53.096;5.844;2023-05-20T08:02:48;1.23;;;1.05;;
49910;SDS011;35803;53.096;5.844;2023-05-20T08:05:35;1.40;;;1.20;;
49910;SDS011;35803;53.096;5.844;2023-05-20T08:08:19;1.13;;;1.02;;
49910;SDS011;35803;53.096;5.844;2023-05-20T08:11:04;2.40;;;0.90;;
49910;SDS011;35803;53.096;5.844;2023-05-20T08:13:48;1.58;;;0.95;;
49910;SDS011;35803;53.096;5.844;2023-05-20T08:16:32;1.08;;;0.98;;
49910;SDS011;35803;53.096;5.844;2023-05-20T08:19:16;2.22;;;1.00;;
49910;SDS011;35803;53.096;5.844;2023-05-20T08:22:00;1.30;;;1.10;;
49910;SDS011;35803;53.096;5.844;2023-05-20T08:24:45;1.52;;;1.00;;
49910;SDS011;35803;53.096;5.844;2023-05-20T08:27:29;1.85;;;1.30;;
49910;SDS011;35803;53.096;5.844;2023-05-20T08:30:13;1.52;;;0.95;;
49910;SDS011;35803;53.096;5.844;2023-05-20T08:32:57;1.48;;;1.00;;
49910;SDS011;35803;53.096;5.844;2023-05-20T08:35:41;2.72;;;1.30;;
49910;SDS011;35803;53.096;5.844;2023-05-20T08:38:25;2.05;;;1.10;;
49910;SDS011;35803;53.096;5.844;2023-05-20T08:41:09;2.25;;;1.35;;
49910;SDS011;35803;53.096;5.844;2023-05-20T08:43:53;1.30;;;1.20;;
49910;SDS011;35803;53.096;5.844;2023-05-20T08:46:38;1.27;;;1.17;;
49910;SDS011;35803;53.096;5.844;2023-05-20T08:49:23;1.30;;;0.95;;
49910;SDS011;35803;53.096;5.844;2023-05-20T08:52:10;1.60;;;1.23;;
49910;SDS011;35803;53.096;5.844;2023-05-20T08:54:56;3.30;;;1.27;;
49910;SDS011;35803;53.096;5.844;2023-05-20T08:57:40;3.22;;;1.40;;
49910;SDS011;35803;53.096;5.844;2023-05-20T09:00:28;1.70;;;1.10;;
49910;SDS011;35803;53.096;5.844;2023-05-20T09:03:19;1.30;;;1.20;;
49910;SDS011;35803;53.096;5.844;2023-05-20T09:06:07;1.60;;;1.08;;
49910;SDS011;35803;53.096;5.844;2023-05-20T09:08:52;4.43;;;1.20;;
49910;SDS011;35803;53.096;5.844;2023-05-20T09:11:39;1.58;;;1.13;;
49910;SDS011;35803;53.096;5.844;2023-05-20T09:14:24;1.20;;;1.10;;
49910;SDS011;35803;53.096;5.844;2023-05-20T09:17:12;2.00;;;1.30;;
49910;SDS011;35803;53.096;5.844;2023-05-20T09:19:56;1.20;;;1.10;;
49910;SDS011;35803;53.096;5.844;2023-05-20T09:22:45;2.53;;;1.05;;
49910;SDS011;35803;53.096;5.844;2023-05-20T09:25:29;3.42;;;1.40;;
49910;SDS011;35803;53.096;5.844;2023-05-20T09:28:14;1.67;;;0.90;;
49910;SDS011;35803;53.096;5.844;2023-05-20T09:30:58;2.55;;;1.25;;
49910;SDS011;35803;53.096;5.844;2023-05-20T09:33:43;2.40;;;1.20;;
49910;SDS011;35803;53.096;5.844;2023-05-20T09:36:27;1.60;;;1.10;;
49910;SDS011;35803;53.096;5.844;2023-05-20T09:39:15;1.50;;;1.10;;
49910;SDS011;35803;53.096;5.844;2023-05-20T09:42:04;2.45;;;1.15;;
49910;SDS011;35803;53.096;5.844;2023-05-20T09:44:53;2.75;;;1.10;;
49910;SDS011;35803;53.096;5.844;2023-05-20T09:47:39;3.72;;;1.23;;
49910;SDS011;35803;53.096;5.844;2023-05-20T09:50:24;1.48;;;1.20;;
49910;SDS011;35803;53.096;5.844;2023-05-20T09:53:09;1.33;;;1.10;;
49910;SDS011;35803;53.096;5.844;2023-05-20T09:55:56;1.73;;;0.95;;
49910;SDS011;35803;53.096;5.844;2023-05-20T09:58:41;1.92;;;1.10;;
49910;SDS011;35803;53.096;5.844;2023-05-20T10:01:28;1.30;;;1.10;;
49910;SDS011;35803;53.096;5.844;2023-05-20T10:04:12;1.50;;;1.30;;
49910;SDS011;35803;53.096;5.844;2023-05-20T10:10:06;1.85;;;1.30;;
49910;SDS011;35803;53.096;5.844;2023-05-20T10:16:12;4.07;;;1.40;;
49910;SDS011;35803;53.096;5.844;2023-05-20T10:19:20;2.38;;;1.33;;
49910;SDS011;35803;53.096;5.844;2023-05-20T10:22:08;1.65;;;1.15;;
49910;SDS011;35803;53.096;5.844;2023-05-20T10:24:57;1.83;;;1.23;;
49910;SDS011;35803;53.096;5.844;2023-05-20T10:27:46;1.98;;;1.27;;
49910;SDS011;35803;53.096;5.844;2023-05-20T10:30:30;1.50;;;1.20;;
49910;SDS011;35803;53.096;5.844;2023-05-20T10:33:17;2.42;;;1.45;;
49910;SDS011;35803;53.096;5.844;2023-05-20T10:36:02;2.67;;;1.48;;
49910;SDS011;35803;53.096;5.844;2023-05-20T10:38:50;1.50;;;1.10;;
49910;SDS011;35803;53.096;5.844;2023-05-20T10:41:35;1.30;;;1.20;;
49910;SDS011;35803;53.096;5.844;2023-05-20T10:44:20;2.22;;;1.23;;
49910;SDS011;35803;53.096;5.844;2023-05-20T10:47:04;1.58;;;1.40;;
49910;SDS011;35803;53.096;5.844;2023-05-20T10:49:48;2.10;;;1.40;;
49910;SDS011;35803;53.096;5.844;2023-05-20T10:52:33;3.30;;;1.45;;
49910;SDS011;35803;53.096;5.844;2023-05-20T10:55:22;1.92;;;1.45;;
49910;SDS011;35803;53.096;5.844;2023-05-20T10:58:06;1.52;;;1.42;;
49910;SDS011;35803;53.096;5.844;2023-05-20T11:00:52;2.45;;;1.50;;
49910;SDS011;35803;53.096;5.844;2023-05-20T11:03:37;3.47;;;1.40;;
49910;SDS011;35803;53.096;5.844;2023-05-20T11:06:24;3.97;;;1.75;;
49910;SDS011;35803;53.096;5.844;2023-05-20T11:09:10;3.28;;;1.75;;
49910;SDS011;35803;53.096;5.844;2023-05-20T11:11:54;2.42;;;1.85;;
49910;SDS011;35803;53.096;5.844;2023-05-20T11:14:38;3.13;;;1.63;;
49910;SDS011;35803;53.096;5.844;2023-05-20T11:17:22;4.13;;;1.98;;
49910;SDS011;35803;53.096;5.844;2023-05-20T11:20:07;3.55;;;1.75;;
49910;SDS011;35803;53.096;5.844;2023-05-20T11:22:53;4.53;;;1.60;;
49910;SDS011;35803;53.096;5.844;2023-05-20T11:25:38;3.40;;;1.88;;
49910;SDS011;35803;53.096;5.844;2023-05-20T11:28:22;2.90;;;1.90;;
49910;SDS011;35803;53.096;5.844;2023-05-20T11:31:09;2.75;;;1.90;;
49910;SDS011;35803;53.096;5.844;2023-05-20T11:34:03;2.67;;;1.88;;
49910;SDS011;35803;53.096;5.844;2023-05-20T11:36:47;3.67;;;1.75;;
49910;SDS011;35803;53.096;5.844;2023-05-20T11:39:33;3.65;;;2.10;;
49910;SDS011;35803;53.096;5.844;2023-05-20T11:42:17;1.92;;;1.73;;
49910;SDS011;35803;53.096;5.844;2023-05-20T11:45:01;3.75;;;2.00;;
49910;SDS011;35803;53.096;5.844;2023-05-20T11:47:46;3.28;;;1.90;;
49910;SDS011;35803;53.096;5.844;2023-05-20T11:50:34;4.40;;;2.00;;
49910;SDS011;35803;53.096;5.844;2023-05-20T11:53:22;3.00;;;1.90;;
49910;SDS011;35803;53.096;5.844;2023-05-20T11:56:07;3.95;;;1.73;;
49910;SDS011;35803;53.096;5.844;2023-05-20T11:58:51;5.05;;;2.53;;
49910;SDS011;35803;53.096;5.844;2023-05-20T12:01:35;2.33;;;1.75;;
49910;SDS011;35803;53.096;5.844;2023-05-20T12:04:25;3.22;;;1.98;;
49910;SDS011;35803;53.096;5.844;2023-05-20T12:07:10;3.78;;;2.33;;
49910;SDS011;35803;53.096;5.844;2023-05-20T12:09:56;2.72;;;1.90;;
49910;SDS011;35803;53.096;5.844;2023-05-20T12:12:40;2.97;;;2.05;;
49910;SDS011;35803;53.096;5.844;2023-05-20T12:15:26;2.33;;;1.90;;
49910;SDS011;35803;53.096;5.844;2023-05-20T12:18:10;6.47;;;2.30;;
49910;SDS011;35803;53.096;5.844;2023-05-20T12:20:54;4.60;;;2.50;;
49910;SDS011;35803;53.096;5.844;2023-05-20T12:23:38;4.65;;;2.17;;
49910;SDS011;35803;53.096;5.844;2023-05-20T12:26:23;4.63;;;1.95;;
49910;SDS011;35803;53.096;5.844;2023-05-20T12:29:08;4.25;;;2.10;;
49910;SDS011;35803;53.096;5.844;2023-05-20T12:31:52;4.28;;;1.73;;
49910;SDS011;35803;53.096;5.844;2023-05-20T12:34:36;3.22;;;1.88;;
49910;SDS011;35803;53.096;5.844;2023-05-20T12:37:20;2.58;;;1.92;;
49910;SDS011;35803;53.096;5.844;2023-05-20T12:40:08;3.60;;;2.03;;
49910;SDS011;35803;53.096;5.844;2023-05-20T12:42:53;2.47;;;1.83;;
49910;SDS011;35803;53.096;5.844;2023-05-20T12:45:40;1.85;;;1.60;;
49910;SDS011;35803;53.096;5.844;2023-05-20T12:48:24;4.43;;;2.05;;
49910;SDS011;35803;53.096;5.844;2023-05-20T12:51:08;3.25;;;2.10;;
49910;SDS011;35803;53.096;5.844;2023-05-20T12:53:53;2.95;;;2.08;;
49910;SDS011;35803;53.096;5.844;2023-05-20T12:56:37;4.22;;;2.10;;
49910;SDS011;35803;53.096;5.844;2023-05-20T12:59:22;4.97;;;1.80;;
49910;SDS011;35803;53.096;5.844;2023-05-20T13:02:06;4.38;;;2.67;;
49910;SDS011;35803;53.096;5.844;2023-05-20T13:04:50;3.20;;;2.17;;
49910;SDS011;35803;53.096;5.844;2023-05-20T13:07:34;3.45;;;2.05;;
49910;SDS011;35803;53.096;5.844;2023-05-20T13:10:19;3.83;;;2.63;;
49910;SDS011;35803;53.096;5.844;2023-05-20T13:13:05;4.47;;;2.38;;
49910;SDS011;35803;53.096;5.844;2023-05-20T13:15:49;2.58;;;2.00;;
49910;SDS011;35803;53.096;5.844;2023-05-20T13:18:34;4.68;;;2.10;;
49910;SDS011;35803;53.096;5.844;2023-05-20T13:21:18;4.13;;;2.20;;
49910;SDS011;35803;53.096;5.844;2023-05-20T13:24:02;4.45;;;2.22;;
49910;SDS011;35803;53.096;5.844;2023-05-20T13:26:49;3.40;;;2.30;;
49910;SDS011;35803;53.096;5.844;2023-05-20T13:29:34;2.47;;;1.92;;
49910;SDS011;35803;53.096;5.844;2023-05-20T13:32:18;2.78;;;2.20;;
49910;SDS011;35803;53.096;5.844;2023-05-20T13:35:03;3.30;;;2.10;;
49910;SDS011;35803;53.096;5.844;2023-05-20T13:37:47;2.75;;;2.42;;
49910;SDS011;35803;53.096;5.844;2023-05-20T13:40:32;3.55;;;1.90;;
49910;SDS011;35803;53.096;5.844;2023-05-20T13:43:21;3.55;;;2.17;;
49910;SDS011;35803;53.096;5.844;2023-05-20T13:46:05;3.22;;;2.08;;
49910;SDS011;35803;53.096;5.844;2023-05-20T13:48:49;4.10;;;2.40;;
49910;SDS011;35803;53.096;5.844;2023-05-20T13:51:33;3.42;;;2.28;;
49910;SDS011;35803;53.096;5.844;2023-05-20T13:54:19;2.80;;;2.10;;
49910;SDS011;35803;53.096;5.844;2023-05-20T13:57:03;4.15;;;2.03;;
49910;SDS011;35803;53.096;5.844;2023-05-20T13:59:50;6.68;;;2.55;;
49910;SDS011;35803;53.096;5.844;2023-05-20T14:02:34;3.90;;;2.60;;
49910;SDS011;35803;53.096;5.844;2023-05-20T14:05:19;3.95;;;2.70;;
49910;SDS011;35803;53.096;5.844;2023-05-20T14:08:03;5.60;;;2.60;;
49910;SDS011;35803;53.096;5.844;2023-05-20T14:10:47;4.30;;;2.20;;
49910;SDS011;35803;53.096;5.844;2023-05-20T14:13:32;5.85;;;2.40;;
49910;SDS011;35803;53.096;5.844;2023-05-20T14:16:16;3.53;;;2.33;;
49910;SDS011;35803;53.096;5.844;2023-05-20T14:19:00;2.78;;;2.00;;
49910;SDS011;35803;53.096;5.844;2023-05-20T14:21:44;3.42;;;2.10;;
49910;SDS011;35803;53.096;5.844;2023-05-20T14:24:28;4.68;;;2.25;;
49910;SDS011;35803;53.096;5.844;2023-05-20T14:27:12;2.90;;;2.15;;
49910;SDS011;35803;53.096;5.844;2023-05-20T14:29:57;4.97;;;2.70;;
49910;SDS011;35803;53.096;5.844;2023-05-20T14:32:44;5.10;;;2.65;;
49910;SDS011;35803;53.096;5.844;2023-05-20T14:35:34;3.58;;;2.40;;
49910;SDS011;35803;53.096;5.844;2023-05-20T14:38:19;2.92;;;2.00;;
49910;SDS011;35803;53.096;5.844;2023-05-20T14:41:03;4.20;;;2.22;;
49910;SDS011;35803;53.096;5.844;2023-05-20T14:43:47;2.47;;;1.90;;
49910;SDS011;35803;53.096;5.844;2023-05-20T14:46:31;1.95;;;1.60;;
49910;SDS011;35803;53.096;5.844;2023-05-20T14:49:16;2.55;;;1.75;;
49910;SDS011;35803;53.096;5.844;2023-05-20T14:52:00;4.13;;;1.90;;
49910;SDS011;35803;53.096;5.844;2023-05-20T14:54:44;3.38;;;2.00;;
49910;SDS011;35803;53.096;5.844;2023-05-20T14:57:31;3.55;;;2.10;;
49910;SDS011;35803;53.096;5.844;2023-05-20T15:00:15;2.45;;;1.90;;
49910;SDS011;35803;53.096;5.844;2023-05-20T15:03:07;5.05;;;2.10;;
49910;SDS011;35803;53.096;5.844;2023-05-20T15:05:53;3.53;;;2.22;;
49910;SDS011;35803;53.096;5.844;2023-05-20T15:08:38;4.07;;;2.10;;
49910;SDS011;35803;53.096;5.844;2023-05-20T15:11:22;3.30;;;2.30;;
49910;SDS011;35803;53.096;5.844;2023-05-20T15:14:09;4.65;;;2.20;;
49910;SDS011;35803;53.096;5.844;2023-05-20T15:16:56;3.88;;;2.05;;
49910;SDS011;35803;53.096;5.844;2023-05-20T15:19:40;5.28;;;2.42;;
49910;SDS011;35803;53.096;5.844;2023-05-20T15:22:24;5.00;;;2.58;;
49910;SDS011;35803;53.096;5.844;2023-05-20T15:25:16;5.07;;;2.40;;
49910;SDS011;35803;53.096;5.844;2023-05-20T15:30:49;3.28;;;2.17;;
49910;SDS011;35803;53.096;5.844;2023-05-20T15:33:35;4.35;;;2.38;;
49910;SDS011;35803;53.096;5.844;2023-05-20T15:36:22;4.25;;;2.38;;
49910;SDS011;35803;53.096;5.844;2023-05-20T15:39:09;4.10;;;2.10;;
49910;SDS011;35803;53.096;5.844;2023-05-20T15:42:00;4.07;;;2.00;;
49910;SDS011;35803;53.096;5.844;2023-05-20T15:44:45;4.82;;;2.28;;
49910;SDS011;35803;53.096;5.844;2023-05-20T15:47:32;5.05;;;2.20;;
49910;SDS011;35803;53.096;5.844;2023-05-20T15:50:16;3.75;;;2.10;;
49910;SDS011;35803;53.096;5.844;2023-05-20T15:53:01;4.60;;;2.10;;
49910;SDS011;35803;53.096;5.844;2023-05-20T15:55:48;3.42;;;1.88;;
49910;SDS011;35803;53.096;5.844;2023-05-20T15:58:34;4.50;;;2.00;;
49910;SDS011;35803;53.096;5.844;2023-05-20T16:01:18;2.42;;;1.90;;
49910;SDS011;35803;53.096;5.844;2023-05-20T16:04:02;4.57;;;2.10;;
49910;SDS011;35803;53.096;5.844;2023-05-20T16:06:49;2.40;;;1.90;;
49910;SDS011;35803;53.096;5.844;2023-05-20T16:09:33;7.80;;;2.10;;
49910;SDS011;35803;53.096;5.844;2023-05-20T16:12:17;3.00;;;1.52;;
49910;SDS011;35803;53.096;5.844;2023-05-20T16:15:04;3.45;;;1.38;;
49910;SDS011;35803;53.096;5.844;2023-05-20T16:17:48;5.82;;;1.98;;
49910;SDS011;35803;53.096;5.844;2023-05-20T16:20:32;2.13;;;1.40;;
49910;SDS011;35803;53.096;5.844;2023-05-20T16:23:16;4.40;;;1.50;;
49910;SDS011;35803;53.096;5.844;2023-05-20T16:26:03;1.83;;;1.40;;
49910;SDS011;35803;53.096;5.844;2023-05-20T16:28:48;4.75;;;1.75;;
49910;SDS011;35803;53.096;5.844;2023-05-20T16:31:34;2.92;;;1.52;;
49910;SDS011;35803;53.096;5.844;2023-05-20T16:34:19;3.08;;;1.60;;
49910;SDS011;35803;53.096;5.844;2023-05-20T16:37:03;2.20;;;1.20;;
49910;SDS011;35803;53.096;5.844;2023-05-20T16:39:47;4.25;;;1.98;;
49910;SDS011;35803;53.096;5.844;2023-05-20T16:42:31;2.75;;;1.67;;
49910;SDS011;35803;53.096;5.844;2023-05-20T16:45:15;3.63;;;2.05;;